sensor_id;sensor_type;location;lat;lon;timestamp;P1;durP1;ratioP1;P2;durP2;ratioP2
74180;SDS011;62544;50.826;14.354;2023-02-28T00:02:45;16.64;;;8.15;;
74180;SDS011;62544;50.826;14.354;2023-02-28T00:07:01;11.98;;;6.27;;
74180;SDS011;62544;50.826;14.354;2023-02-28T00:11:17;11.98;;;6.27;;
74180;SDS011;62544;50.826;14.354;2023-02-28T00:15:33;14.63;;;7.11;;
74180;SDS011;62544;50.826;14.354;2023-02-28T00:19:50;14.63;;;7.11;;
74180;SDS011;62544;50.826;14.354;2023-02-28T00:24:05;11.48;;;5.40;;
74180;SDS011;62544;50.826;14.354;2023-02-28T00:28:22;11.48;;;5.40;;
74180;SDS011;62544;50.826;14.354;2023-02-28T00:32:37;11.48;;;5.40;;
74180;SDS011;62544;50.826;14.354;2023-02-28T00:36:53;27.11;;;8.13;;
74180;SDS011;62544;50.826;14.354;2023-02-28T00:41:09;27.11;;;8.13;;
74180;SDS011;62544;50.826;14.354;2023-02-28T00:45:25;17.64;;;6.41;;
74180;SDS011;62544;50.826;14.354;2023-02-28T00:49:41;17.64;;;6.41;;
74180;SDS011;62544;50.826;14.354;2023-02-28T00:53:57;34.05;;;9.42;;
74180;SDS011;62544;50.826;14.354;2023-02-28T00:58:13;34.05;;;9.42;;
74180;SDS011;62544;50.826;14.354;2023-02-28T01:02:29;34.05;;;9.42;;
74180;SDS011;62544;50.826;14.354;2023-02-28T01:06:45;13.90;;;6.25;;
74180;SDS011;62544;50.826;14.354;2023-02-28T01:11:11;13.90;;;6.25;;
74180;SDS011;62544;50.826;14.354;2023-02-28T01:15:17;12.50;;;5.99;;
74180;SDS011;62544;50.826;14.354;2023-02-28T01:19:33;12.50;;;5.99;;
74180;SDS011;62544;50.826;14.354;2023-02-28T01:23:49;24.12;;;8.41;;
74180;SDS011;62544;50.826;14.354;2023-02-28T01:28:05;24.12;;;8.41;;
74180;SDS011;62544;50.826;14.354;2023-02-28T01:32:21;24.12;;;8.41;;
74180;SDS011;62544;50.826;14.354;2023-02-28T01:36:37;17.10;;;7.63;;
74180;SDS011;62544;50.826;14.354;2023-02-28T01:40:53;17.10;;;7.63;;
74180;SDS011;62544;50.826;14.354;2023-02-28T01:45:18;15.46;;;7.62;;
74180;SDS011;62544;50.826;14.354;2023-02-28T01:49:25;15.46;;;7.62;;
74180;SDS011;62544;50.826;14.354;2023-02-28T01:53:42;13.83;;;6.76;;
74180;SDS011;62544;50.826;14.354;2023-02-28T01:57:58;13.83;;;6.76;;
74180;SDS011;62544;50.826;14.354;2023-02-28T02:02:13;13.83;;;6.76;;
74180;SDS011;62544;50.826;14.354;2023-02-28T02:06:37;15.02;;;7.60;;
74180;SDS011;62544;50.826;14.354;2023-02-28T02:10:46;15.02;;;7.60;;
74180;SDS011;62544;50.826;14.354;2023-02-28T02:15:16;13.02;;;6.35;;
74180;SDS011;62544;50.826;14.354;2023-02-28T02:23:42;12.16;;;5.89;;
74180;SDS011;62544;50.826;14.354;2023-02-28T02:36:25;11.40;;;6.54;;
74180;SDS011;62544;50.826;14.354;2023-02-28T02:40:48;11.40;;;6.54;;
74180;SDS011;62544;50.826;14.354;2023-02-28T02:45:01;13.40;;;6.77;;
74180;SDS011;62544;50.826;14.354;2023-02-28T02:49:11;13.40;;;6.77;;
74180;SDS011;62544;50.826;14.354;2023-02-28T02:53:30;14.64;;;8.35;;
74180;SDS011;62544;50.826;14.354;2023-02-28T02:57:44;14.64;;;8.35;;
74180;SDS011;62544;50.826;14.354;2023-02-28T03:01:59;14.64;;;8.35;;
74180;SDS011;62544;50.826;14.354;2023-02-28T03:06:14;15.77;;;8.08;;
74180;SDS011;62544;50.826;14.354;2023-02-28T03:10:34;15.77;;;8.08;;
74180;SDS011;62544;50.826;14.354;2023-02-28T03:14:49;15.22;;;8.00;;
74180;SDS011;62544;50.826;14.354;2023-02-28T03:23:21;15.22;;;8.00;;
74180;SDS011;62544;50.826;14.354;2023-02-28T03:31:50;16.70;;;8.08;;
74180;SDS011;62544;50.826;14.354;2023-02-28T03:36:10;15.38;;;7.99;;
74180;SDS011;62544;50.826;14.354;2023-02-28T03:40:23;15.38;;;7.99;;
74180;SDS011;62544;50.826;14.354;2023-02-28T03:44:45;19.07;;;8.72;;
74180;SDS011;62544;50.826;14.354;2023-02-28T03:48:55;19.07;;;8.72;;
74180;SDS011;62544;50.826;14.354;2023-02-28T03:53:29;19.07;;;8.72;;
74180;SDS011;62544;50.826;14.354;2023-02-28T04:01:43;18.63;;;9.52;;
74180;SDS011;62544;50.826;14.354;2023-02-28T04:05:57;16.31;;;7.92;;
74180;SDS011;62544;50.826;14.354;2023-02-28T04:10:13;16.31;;;7.92;;
74180;SDS011;62544;50.826;14.354;2023-02-28T04:14:29;16.57;;;7.83;;
74180;SDS011;62544;50.826;14.354;2023-02-28T04:18:45;16.57;;;7.83;;
74180;SDS011;62544;50.826;14.354;2023-02-28T04:23:01;16.57;;;7.83;;
74180;SDS011;62544;50.826;14.354;2023-02-28T04:27:17;16.97;;;7.82;;
74180;SDS011;62544;50.826;14.354;2023-02-28T04:31:33;16.97;;;7.82;;
74180;SDS011;62544;50.826;14.354;2023-02-28T04:36:05;17.46;;;8.68;;
74180;SDS011;62544;50.826;14.354;2023-02-28T04:40:06;17.46;;;8.68;;
74180;SDS011;62544;50.826;14.354;2023-02-28T04:44:22;15.80;;;8.08;;
74180;SDS011;62544;50.826;14.354;2023-02-28T04:48:38;15.80;;;8.08;;
74180;SDS011;62544;50.826;14.354;2023-02-28T04:52:54;15.80;;;8.08;;
74180;SDS011;62544;50.826;14.354;2023-02-28T04:57:10;14.19;;;6.99;;
74180;SDS011;62544;50.826;14.354;2023-02-28T05:01:27;14.19;;;6.99;;
74180;SDS011;62544;50.826;14.354;2023-02-28T05:05:42;18.25;;;8.37;;
74180;SDS011;62544;50.826;14.354;2023-02-28T05:09:58;18.25;;;8.37;;
74180;SDS011;62544;50.826;14.354;2023-02-28T05:14:14;18.52;;;8.58;;
74180;SDS011;62544;50.826;14.354;2023-02-28T05:18:30;18.52;;;8.58;;
74180;SDS011;62544;50.826;14.354;2023-02-28T05:22:46;18.52;;;8.58;;
74180;SDS011;62544;50.826;14.354;2023-02-28T05:27:02;20.00;;;8.97;;
74180;SDS011;62544;50.826;14.354;2023-02-28T05:31:18;20.00;;;8.97;;
74180;SDS011;62544;50.826;14.354;2023-02-28T05:35:34;16.86;;;8.41;;
74180;SDS011;62544;50.826;14.354;2023-02-28T05:39:50;16.86;;;8.41;;
74180;SDS011;62544;50.826;14.354;2023-02-28T05:44:06;17.13;;;8.26;;
74180;SDS011;62544;50.826;14.354;2023-02-28T05:48:22;17.13;;;8.26;;
74180;SDS011;62544;50.826;14.354;2023-02-28T05:52:38;17.13;;;8.26;;
74180;SDS011;62544;50.826;14.354;2023-02-28T05:56:54;16.61;;;8.24;;
74180;SDS011;62544;50.826;14.354;2023-02-28T06:01:21;16.61;;;8.24;;
74180;SDS011;62544;50.826;14.354;2023-02-28T06:05:26;16.77;;;7.75;;
74180;SDS011;62544;50.826;14.354;2023-02-28T06:09:42;16.77;;;7.75;;
74180;SDS011;62544;50.826;14.354;2023-02-28T06:13:59;17.91;;;8.16;;
74180;SDS011;62544;50.826;14.354;2023-02-28T06:18:14;17.91;;;8.16;;
74180;SDS011;62544;50.826;14.354;2023-02-28T06:22:30;17.91;;;8.16;;
74180;SDS011;62544;50.826;14.354;2023-02-28T06:26:46;19.51;;;8.76;;
74180;SDS011;62544;50.826;14.354;2023-02-28T06:31:09;19.51;;;8.76;;
74180;SDS011;62544;50.826;14.354;2023-02-28T06:35:18;20.75;;;9.65;;
74180;SDS011;62544;50.826;14.354;2023-02-28T06:39:34;20.75;;;9.65;;
74180;SDS011;62544;50.826;14.354;2023-02-28T06:43:51;21.39;;;9.92;;
74180;SDS011;62544;50.826;14.354;2023-02-28T06:48:06;21.39;;;9.92;;
74180;SDS011;62544;50.826;14.354;2023-02-28T06:52:22;21.39;;;9.92;;
74180;SDS011;62544;50.826;14.354;2023-02-28T06:56:38;26.09;;;12.15;;
74180;SDS011;62544;50.826;14.354;2023-02-28T07:00:54;26.09;;;12.15;;
74180;SDS011;62544;50.826;14.354;2023-02-28T07:05:10;37.03;;;15.69;;
74180;SDS011;62544;50.826;14.354;2023-02-28T07:09:26;37.03;;;15.69;;
74180;SDS011;62544;50.826;14.354;2023-02-28T07:13:42;35.89;;;15.73;;
74180;SDS011;62544;50.826;14.354;2023-02-28T07:17:58;35.89;;;15.73;;
74180;SDS011;62544;50.826;14.354;2023-02-28T07:22:14;35.89;;;15.73;;
74180;SDS011;62544;50.826;14.354;2023-02-28T07:26:31;26.30;;;12.49;;
74180;SDS011;62544;50.826;14.354;2023-02-28T07:30:46;26.30;;;12.49;;
74180;SDS011;62544;50.826;14.354;2023-02-28T07:35:03;12.12;;;5.28;;
74180;SDS011;62544;50.826;14.354;2023-02-28T07:39:19;12.12;;;5.28;;
74180;SDS011;62544;50.826;14.354;2023-02-28T07:43:34;13.86;;;7.07;;
74180;SDS011;62544;50.826;14.354;2023-02-28T07:47:50;13.86;;;7.07;;
74180;SDS011;62544;50.826;14.354;2023-02-28T07:52:07;13.86;;;7.07;;
74180;SDS011;62544;50.826;14.354;2023-02-28T07:56:22;14.79;;;7.25;;
74180;SDS011;62544;50.826;14.354;2023-02-28T08:00:38;14.79;;;7.25;;
74180;SDS011;62544;50.826;14.354;2023-02-28T08:04:54;53.43;;;30.80;;
74180;SDS011;62544;50.826;14.354;2023-02-28T08:09:10;53.43;;;30.80;;
74180;SDS011;62544;50.826;14.354;2023-02-28T08:13:27;22.82;;;9.42;;
74180;SDS011;62544;50.826;14.354;2023-02-28T08:17:42;22.82;;;9.42;;
74180;SDS011;62544;50.826;14.354;2023-02-28T08:21:58;22.82;;;9.42;;
74180;SDS011;62544;50.826;14.354;2023-02-28T08:26:15;22.82;;;9.42;;
74180;SDS011;62544;50.826;14.354;2023-02-28T08:30:30;22.82;;;9.42;;
74180;SDS011;62544;50.826;14.354;2023-02-28T08:34:46;50.38;;;16.53;;
74180;SDS011;62544;50.826;14.354;2023-02-28T08:39:02;50.38;;;16.53;;
74180;SDS011;62544;50.826;14.354;2023-02-28T08:43:18;50.38;;;16.53;;
74180;SDS011;62544;50.826;14.354;2023-02-28T08:47:34;15.24;;;8.25;;
74180;SDS011;62544;50.826;14.354;2023-02-28T08:51:50;15.24;;;8.25;;
74180;SDS011;62544;50.826;14.354;2023-02-28T08:56:08;16.21;;;8.01;;
74180;SDS011;62544;50.826;14.354;2023-02-28T09:00:23;16.21;;;8.01;;
74180;SDS011;62544;50.826;14.354;2023-02-28T09:04:38;15.86;;;7.34;;
74180;SDS011;62544;50.826;14.354;2023-02-28T09:08:57;15.86;;;7.34;;
74180;SDS011;62544;50.826;14.354;2023-02-28T09:13:10;15.86;;;7.34;;
74180;SDS011;62544;50.826;14.354;2023-02-28T09:17:26;13.19;;;6.64;;
74180;SDS011;62544;50.826;14.354;2023-02-28T09:21:42;13.19;;;6.64;;
74180;SDS011;62544;50.826;14.354;2023-02-28T09:25:58;11.05;;;6.03;;
74180;SDS011;62544;50.826;14.354;2023-02-28T09:30:14;11.05;;;6.03;;
74180;SDS011;62544;50.826;14.354;2023-02-28T09:34:30;11.19;;;6.06;;
74180;SDS011;62544;50.826;14.354;2023-02-28T09:38:46;11.19;;;6.06;;
74180;SDS011;62544;50.826;14.354;2023-02-28T09:43:02;11.19;;;6.06;;
74180;SDS011;62544;50.826;14.354;2023-02-28T09:47:25;10.90;;;5.08;;
74180;SDS011;62544;50.826;14.354;2023-02-28T09:51:37;10.90;;;5.08;;
74180;SDS011;62544;50.826;14.354;2023-02-28T09:55:55;8.37;;;5.08;;
74180;SDS011;62544;50.826;14.354;2023-02-28T10:04:29;9.92;;;5.67;;
74180;SDS011;62544;50.826;14.354;2023-02-28T10:08:51;9.92;;;5.67;;
74180;SDS011;62544;50.826;14.354;2023-02-28T10:12:55;9.92;;;5.67;;
74180;SDS011;62544;50.826;14.354;2023-02-28T10:17:11;9.95;;;5.83;;
74180;SDS011;62544;50.826;14.354;2023-02-28T10:21:32;9.95;;;5.83;;
74180;SDS011;62544;50.826;14.354;2023-02-28T10:25:43;9.95;;;5.83;;
74180;SDS011;62544;50.826;14.354;2023-02-28T10:29:59;9.95;;;5.83;;
74180;SDS011;62544;50.826;14.354;2023-02-28T10:34:14;9.14;;;5.71;;
74180;SDS011;62544;50.826;14.354;2023-02-28T10:38:34;9.14;;;5.71;;
74180;SDS011;62544;50.826;14.354;2023-02-28T10:43:02;9.14;;;5.71;;
74180;SDS011;62544;50.826;14.354;2023-02-28T10:47:02;11.04;;;5.86;;
74180;SDS011;62544;50.826;14.354;2023-02-28T10:51:19;11.04;;;5.86;;
74180;SDS011;62544;50.826;14.354;2023-02-28T10:55:35;9.66;;;5.55;;
74180;SDS011;62544;50.826;14.354;2023-02-28T10:59:51;9.66;;;5.55;;
74180;SDS011;62544;50.826;14.354;2023-02-28T11:04:20;9.66;;;5.55;;
74180;SDS011;62544;50.826;14.354;2023-02-28T11:08:22;9.66;;;5.55;;
74180;SDS011;62544;50.826;14.354;2023-02-28T11:12:38;9.66;;;5.55;;
74180;SDS011;62544;50.826;14.354;2023-02-28T11:16:55;11.47;;;6.36;;
74180;SDS011;62544;50.826;14.354;2023-02-28T11:21:15;11.47;;;6.36;;
74180;SDS011;62544;50.826;14.354;2023-02-28T11:25:28;11.47;;;6.36;;
74180;SDS011;62544;50.826;14.354;2023-02-28T11:29:46;11.47;;;6.36;;
74180;SDS011;62544;50.826;14.354;2023-02-28T11:33:59;11.47;;;6.36;;
74180;SDS011;62544;50.826;14.354;2023-02-28T11:38:15;11.47;;;6.36;;
74180;SDS011;62544;50.826;14.354;2023-02-28T11:42:40;11.47;;;6.36;;
74180;SDS011;62544;50.826;14.354;2023-02-28T11:46:47;11.47;;;6.36;;
74180;SDS011;62544;50.826;14.354;2023-02-28T11:51:21;11.47;;;6.36;;
74180;SDS011;62544;50.826;14.354;2023-02-28T11:55:38;10.52;;;6.35;;
74180;SDS011;62544;50.826;14.354;2023-02-28T12:21:05;9.08;;;5.59;;
74180;SDS011;62544;50.826;14.354;2023-02-28T12:29:32;8.87;;;5.78;;
74180;SDS011;62544;50.826;14.354;2023-02-28T12:33:48;11.36;;;5.88;;
74180;SDS011;62544;50.826;14.354;2023-02-28T12:38:02;11.36;;;5.88;;
74180;SDS011;62544;50.826;14.354;2023-02-28T12:46:39;11.03;;;5.96;;
74180;SDS011;62544;50.826;14.354;2023-02-28T12:50:47;11.03;;;5.96;;
74180;SDS011;62544;50.826;14.354;2023-02-28T12:55:05;9.66;;;5.38;;
74180;SDS011;62544;50.826;14.354;2023-02-28T12:59:24;9.66;;;5.38;;
74180;SDS011;62544;50.826;14.354;2023-02-28T13:08:17;9.87;;;6.18;;
74180;SDS011;62544;50.826;14.354;2023-02-28T13:12:13;9.87;;;6.18;;
74180;SDS011;62544;50.826;14.354;2023-02-28T13:16:23;9.27;;;5.68;;
74180;SDS011;62544;50.826;14.354;2023-02-28T13:20:46;9.27;;;5.68;;
74180;SDS011;62544;50.826;14.354;2023-02-28T13:24:56;9.75;;;5.77;;
74180;SDS011;62544;50.826;14.354;2023-02-28T13:33:31;10.33;;;6.36;;
74180;SDS011;62544;50.826;14.354;2023-02-28T13:37:44;10.33;;;6.36;;
74180;SDS011;62544;50.826;14.354;2023-02-28T13:42:13;10.33;;;6.36;;
74180;SDS011;62544;50.826;14.354;2023-02-28T13:46:15;11.96;;;7.28;;
74180;SDS011;62544;50.826;14.354;2023-02-28T13:50:32;11.96;;;7.28;;
74180;SDS011;62544;50.826;14.354;2023-02-28T13:55:09;11.82;;;6.85;;
74180;SDS011;62544;50.826;14.354;2023-02-28T13:59:16;11.82;;;6.85;;
74180;SDS011;62544;50.826;14.354;2023-02-28T14:07:41;10.89;;;6.93;;
74180;SDS011;62544;50.826;14.354;2023-02-28T14:11:52;10.89;;;6.93;;
74180;SDS011;62544;50.826;14.354;2023-02-28T14:16:07;11.51;;;6.75;;
74180;SDS011;62544;50.826;14.354;2023-02-28T14:20:24;11.51;;;6.75;;
74180;SDS011;62544;50.826;14.354;2023-02-28T14:24:49;11.15;;;6.97;;
74180;SDS011;62544;50.826;14.354;2023-02-28T14:37:28;14.02;;;6.46;;
74180;SDS011;62544;50.826;14.354;2023-02-28T14:41:44;14.02;;;6.46;;
74180;SDS011;62544;50.826;14.354;2023-02-28T14:46:00;9.67;;;7.08;;
74180;SDS011;62544;50.826;14.354;2023-02-28T14:50:19;9.67;;;7.08;;
74180;SDS011;62544;50.826;14.354;2023-02-28T14:54:31;13.18;;;8.32;;
74180;SDS011;62544;50.826;14.354;2023-02-28T14:58:51;13.18;;;8.32;;
74180;SDS011;62544;50.826;14.354;2023-02-28T15:07:19;12.49;;;8.13;;
74180;SDS011;62544;50.826;14.354;2023-02-28T15:11:35;12.49;;;8.13;;
74180;SDS011;62544;50.826;14.354;2023-02-28T15:15:52;14.51;;;8.55;;
74180;SDS011;62544;50.826;14.354;2023-02-28T15:20:10;14.51;;;8.55;;
74180;SDS011;62544;50.826;14.354;2023-02-28T15:24:27;15.03;;;8.59;;
74180;SDS011;62544;50.826;14.354;2023-02-28T15:28:39;15.03;;;8.59;;
74180;SDS011;62544;50.826;14.354;2023-02-28T15:37:33;15.03;;;8.59;;
74180;SDS011;62544;50.826;14.354;2023-02-28T15:41:31;15.03;;;8.59;;
74180;SDS011;62544;50.826;14.354;2023-02-28T15:45:50;15.03;;;8.59;;
74180;SDS011;62544;50.826;14.354;2023-02-28T15:50:17;15.03;;;8.59;;
74180;SDS011;62544;50.826;14.354;2023-02-28T15:54:23;15.03;;;8.59;;
74180;SDS011;62544;50.826;14.354;2023-02-28T15:58:32;15.03;;;8.59;;
74180;SDS011;62544;50.826;14.354;2023-02-28T16:02:47;15.03;;;8.59;;
74180;SDS011;62544;50.826;14.354;2023-02-28T16:07:04;15.03;;;8.59;;
74180;SDS011;62544;50.826;14.354;2023-02-28T16:11:22;15.03;;;8.59;;
74180;SDS011;62544;50.826;14.354;2023-02-28T16:15:37;18.63;;;10.72;;
74180;SDS011;62544;50.826;14.354;2023-02-28T16:19:51;18.63;;;10.72;;
74180;SDS011;62544;50.826;14.354;2023-02-28T16:24:07;13.13;;;8.11;;
74180;SDS011;62544;50.826;14.354;2023-02-28T16:28:33;13.13;;;8.11;;
74180;SDS011;62544;50.826;14.354;2023-02-28T16:32:39;13.13;;;8.11;;
74180;SDS011;62544;50.826;14.354;2023-02-28T16:36:55;16.56;;;9.21;;
74180;SDS011;62544;50.826;14.354;2023-02-28T16:41:12;16.56;;;9.21;;
74180;SDS011;62544;50.826;14.354;2023-02-28T16:45:28;15.75;;;9.32;;
74180;SDS011;62544;50.826;14.354;2023-02-28T16:49:43;15.75;;;9.32;;
74180;SDS011;62544;50.826;14.354;2023-02-28T16:53:59;14.36;;;9.06;;
74180;SDS011;62544;50.826;14.354;2023-02-28T16:58:16;14.36;;;9.06;;
74180;SDS011;62544;50.826;14.354;2023-02-28T17:02:31;14.36;;;9.06;;
74180;SDS011;62544;50.826;14.354;2023-02-28T17:06:47;17.04;;;10.15;;
74180;SDS011;62544;50.826;14.354;2023-02-28T17:11:03;17.04;;;10.15;;
74180;SDS011;62544;50.826;14.354;2023-02-28T17:15:19;18.58;;;11.00;;
74180;SDS011;62544;50.826;14.354;2023-02-28T17:19:35;18.58;;;11.00;;
74180;SDS011;62544;50.826;14.354;2023-02-28T17:23:51;24.54;;;14.10;;
74180;SDS011;62544;50.826;14.354;2023-02-28T17:28:08;24.54;;;14.10;;
74180;SDS011;62544;50.826;14.354;2023-02-28T17:32:23;24.54;;;14.10;;
74180;SDS011;62544;50.826;14.354;2023-02-28T17:36:39;21.86;;;12.62;;
74180;SDS011;62544;50.826;14.354;2023-02-28T17:40:55;21.86;;;12.62;;
74180;SDS011;62544;50.826;14.354;2023-02-28T17:45:11;22.19;;;12.57;;
74180;SDS011;62544;50.826;14.354;2023-02-28T17:49:27;22.19;;;12.57;;
74180;SDS011;62544;50.826;14.354;2023-02-28T17:53:43;21.22;;;12.18;;
74180;SDS011;62544;50.826;14.354;2023-02-28T17:57:59;21.22;;;12.18;;
74180;SDS011;62544;50.826;14.354;2023-02-28T18:02:15;21.22;;;12.18;;
74180;SDS011;62544;50.826;14.354;2023-02-28T18:06:35;20.28;;;11.43;;
74180;SDS011;62544;50.826;14.354;2023-02-28T18:10:47;20.28;;;11.43;;
74180;SDS011;62544;50.826;14.354;2023-02-28T18:15:03;17.74;;;10.78;;
74180;SDS011;62544;50.826;14.354;2023-02-28T18:19:19;17.74;;;10.78;;
74180;SDS011;62544;50.826;14.354;2023-02-28T18:23:35;20.24;;;11.86;;
74180;SDS011;62544;50.826;14.354;2023-02-28T18:27:51;20.24;;;11.86;;
74180;SDS011;62544;50.826;14.354;2023-02-28T18:32:07;20.24;;;11.86;;
74180;SDS011;62544;50.826;14.354;2023-02-28T18:36:23;21.25;;;11.67;;
74180;SDS011;62544;50.826;14.354;2023-02-28T18:40:39;21.25;;;11.67;;
74180;SDS011;62544;50.826;14.354;2023-02-28T18:44:55;20.32;;;11.62;;
74180;SDS011;62544;50.826;14.354;2023-02-28T18:49:11;20.32;;;11.62;;
74180;SDS011;62544;50.826;14.354;2023-02-28T18:53:27;38.94;;;16.76;;
74180;SDS011;62544;50.826;14.354;2023-02-28T18:57:44;38.94;;;16.76;;
74180;SDS011;62544;50.826;14.354;2023-02-28T19:01:59;38.94;;;16.76;;
74180;SDS011;62544;50.826;14.354;2023-02-28T19:06:15;27.20;;;14.43;;
74180;SDS011;62544;50.826;14.354;2023-02-28T19:10:31;27.20;;;14.43;;
74180;SDS011;62544;50.826;14.354;2023-02-28T19:14:47;17.84;;;10.12;;
74180;SDS011;62544;50.826;14.354;2023-02-28T19:19:03;17.84;;;10.12;;
74180;SDS011;62544;50.826;14.354;2023-02-28T19:23:19;17.84;;;10.12;;
74180;SDS011;62544;50.826;14.354;2023-02-28T19:27:35;18.80;;;10.45;;
74180;SDS011;62544;50.826;14.354;2023-02-28T19:31:51;18.80;;;10.45;;
74180;SDS011;62544;50.826;14.354;2023-02-28T19:36:08;19.52;;;10.51;;
74180;SDS011;62544;50.826;14.354;2023-02-28T19:40:23;19.52;;;10.51;;
74180;SDS011;62544;50.826;14.354;2023-02-28T19:44:40;19.25;;;10.70;;
74180;SDS011;62544;50.826;14.354;2023-02-28T19:48:55;19.25;;;10.70;;
74180;SDS011;62544;50.826;14.354;2023-02-28T19:53:11;19.25;;;10.70;;
74180;SDS011;62544;50.826;14.354;2023-02-28T19:57:27;17.87;;;10.06;;
74180;SDS011;62544;50.826;14.354;2023-02-28T20:01:43;17.87;;;10.06;;
74180;SDS011;62544;50.826;14.354;2023-02-28T20:06:00;22.76;;;12.38;;
74180;SDS011;62544;50.826;14.354;2023-02-28T20:10:15;22.76;;;12.38;;
74180;SDS011;62544;50.826;14.354;2023-02-28T20:14:31;21.95;;;12.74;;
74180;SDS011;62544;50.826;14.354;2023-02-28T20:18:50;21.95;;;12.74;;
74180;SDS011;62544;50.826;14.354;2023-02-28T20:23:03;21.95;;;12.74;;
74180;SDS011;62544;50.826;14.354;2023-02-28T20:27:19;44.10;;;30.95;;
74180;SDS011;62544;50.826;14.354;2023-02-28T20:31:35;44.10;;;30.95;;
74180;SDS011;62544;50.826;14.354;2023-02-28T20:36:00;21.38;;;11.44;;
74180;SDS011;62544;50.826;14.354;2023-02-28T20:40:07;21.38;;;11.44;;
74180;SDS011;62544;50.826;14.354;2023-02-28T20:44:23;31.77;;;17.56;;
74180;SDS011;62544;50.826;14.354;2023-02-28T20:48:39;31.77;;;17.56;;
74180;SDS011;62544;50.826;14.354;2023-02-28T20:52:55;31.77;;;17.56;;
74180;SDS011;62544;50.826;14.354;2023-02-28T20:57:11;22.70;;;11.99;;
74180;SDS011;62544;50.826;14.354;2023-02-28T21:01:27;22.70;;;11.99;;
74180;SDS011;62544;50.826;14.354;2023-02-28T21:05:43;23.76;;;12.16;;
74180;SDS011;62544;50.826;14.354;2023-02-28T21:09:59;23.76;;;12.16;;
74180;SDS011;62544;50.826;14.354;2023-02-28T21:14:15;28.72;;;14.22;;
74180;SDS011;62544;50.826;14.354;2023-02-28T21:18:32;28.72;;;14.22;;
74180;SDS011;62544;50.826;14.354;2023-02-28T21:22:47;28.72;;;14.22;;
74180;SDS011;62544;50.826;14.354;2023-02-28T21:27:03;39.97;;;22.68;;
74180;SDS011;62544;50.826;14.354;2023-02-28T21:31:19;39.97;;;22.68;;
74180;SDS011;62544;50.826;14.354;2023-02-28T21:35:35;25.55;;;13.92;;
74180;SDS011;62544;50.826;14.354;2023-02-28T21:39:51;25.55;;;13.92;;
74180;SDS011;62544;50.826;14.354;2023-02-28T21:44:07;23.21;;;12.36;;
74180;SDS011;62544;50.826;14.354;2023-02-28T21:48:23;23.21;;;12.36;;
74180;SDS011;62544;50.826;14.354;2023-02-28T21:52:39;23.21;;;12.36;;
74180;SDS011;62544;50.826;14.354;2023-02-28T21:56:55;30.68;;;17.16;;
74180;SDS011;62544;50.826;14.354;2023-02-28T22:01:15;30.68;;;17.16;;
74180;SDS011;62544;50.826;14.354;2023-02-28T22:05:28;26.03;;;13.47;;
74180;SDS011;62544;50.826;14.354;2023-02-28T22:09:43;26.03;;;13.47;;
74180;SDS011;62544;50.826;14.354;2023-02-28T22:13:59;21.84;;;10.99;;
74180;SDS011;62544;50.826;14.354;2023-02-28T22:18:15;21.84;;;10.99;;
74180;SDS011;62544;50.826;14.354;2023-02-28T22:22:31;21.84;;;10.99;;
74180;SDS011;62544;50.826;14.354;2023-02-28T22:26:47;28.46;;;13.59;;
74180;SDS011;62544;50.826;14.354;2023-02-28T22:35:19;27.55;;;16.78;;
74180;SDS011;62544;50.826;14.354;2023-02-28T22:39:35;27.55;;;16.78;;
74180;SDS011;62544;50.826;14.354;2023-02-28T22:43:51;23.72;;;11.99;;
74180;SDS011;62544;50.826;14.354;2023-02-28T22:48:08;23.72;;;11.99;;
74180;SDS011;62544;50.826;14.354;2023-02-28T22:52:23;23.72;;;11.99;;
74180;SDS011;62544;50.826;14.354;2023-02-28T22:56:39;28.02;;;14.97;;
74180;SDS011;62544;50.826;14.354;2023-02-28T23:00:55;28.02;;;14.97;;
74180;SDS011;62544;50.826;14.354;2023-02-28T23:05:11;28.15;;;13.63;;
74180;SDS011;62544;50.826;14.354;2023-02-28T23:09:27;28.15;;;13.63;;
74180;SDS011;62544;50.826;14.354;2023-02-28T23:13:43;26.64;;;12.81;;
74180;SDS011;62544;50.826;14.354;2023-02-28T23:17:59;26.64;;;12.81;;
74180;SDS011;62544;50.826;14.354;2023-02-28T23:22:15;26.64;;;12.81;;
74180;SDS011;62544;50.826;14.354;2023-02-28T23:26:31;28.76;;;14.47;;
74180;SDS011;62544;50.826;14.354;2023-02-28T23:30:47;28.76;;;14.47;;
74180;SDS011;62544;50.826;14.354;2023-02-28T23:35:03;23.01;;;11.44;;
74180;SDS011;62544;50.826;14.354;2023-02-28T23:39:19;23.01;;;11.44;;
74180;SDS011;62544;50.826;14.354;2023-02-28T23:43:35;24.88;;;12.77;;
74180;SDS011;62544;50.826;14.354;2023-02-28T23:47:51;24.88;;;12.77;;
74180;SDS011;62544;50.826;14.354;2023-02-28T23:52:07;24.88;;;12.77;;
74180;SDS011;62544;50.826;14.354;2023-02-28T23:56:23;29.23;;;14.13;;
